Time;durP1;ratioP1;P1;durP2;ratioP2;P2;SDS_P1;SDS_P2;PMS_P1;PMS_P2;Temp;Humidity;BMP_temperature;BMP_pressure;BME280_temperature;BME280_humidity;BME280_pressure;Samples;Min_cycle;Max_cycle;Signal;HPM_P1;HPM_P2
2022/04/21 00:00:10;;;;;;;;;6.00;6.00;;;;;16.22;30.75;100528.25;4961330;28;45914;-51
2022/04/21 00:02:35;;;;;;;;;5.25;5.25;;;;;16.20;30.76;100526.56;4962666;28;45256;-52
2022/04/21 00:05:01;;;;;;;;;5.75;4.50;;;;;16.13;30.69;100517.19;4975026;28;45384;-50
2022/04/21 00:07:26;;;;;;;;;6.00;6.00;;;;;16.11;30.93;100513.72;4969604;28;45399;-47
2022/04/21 00:09:52;;;;;;;;;4.00;4.00;;;;;16.11;31.07;100509.25;4960930;28;45351;-47
2022/04/21 00:12:17;;;;;;;;;8.50;6.00;;;;;16.08;31.18;100512.91;4962556;28;45267;-50
2022/04/21 00:14:44;;;;;;;;;7.00;5.00;;;;;16.03;30.79;100508.72;4962310;28;45406;-50
2022/04/21 00:17:09;;;;;;;;;5.00;5.00;;;;;16.03;30.96;100508.72;4965025;28;45199;-47
2022/04/21 00:19:35;;;;;;;;;4.50;4.50;;;;;15.98;30.78;100500.97;4962329;28;45234;-50
2022/04/21 00:24:44;;;;;;;;;3.25;3.25;;;;;15.78;30.98;100475.22;4962151;28;45378;-49
2022/04/21 00:27:10;;;;;;;;;4.50;3.75;;;;;15.85;30.88;100490.00;4960646;28;48034;-67
2022/04/21 00:29:35;;;;;;;;;4.50;4.50;;;;;15.86;31.10;100498.78;4962309;28;45205;-47
2022/04/21 00:32:01;;;;;;;;;4.75;4.75;;;;;15.82;31.21;100500.69;4961969;28;45442;-49
2022/04/21 00:34:26;;;;;;;;;6.00;6.00;;;;;15.78;31.33;100496.41;4962107;28;45329;-49
2022/04/21 00:36:52;;;;;;;;;4.75;4.75;;;;;15.74;31.00;100493.03;4961685;28;46275;-51
2022/04/21 00:39:17;;;;;;;;;4.75;4.75;;;;;15.72;31.40;100491.38;4960658;28;45316;-48
2022/04/21 00:41:42;;;;;;;;;5.25;5.25;;;;;15.68;30.79;100482.66;4961980;28;45231;-50
2022/04/21 00:44:08;;;;;;;;;4.00;3.00;;;;;15.64;31.10;100485.53;4962152;28;45233;-50
2022/04/21 00:46:38;;;;;;;;;6.25;6.25;;;;;15.64;30.91;100498.78;4961819;28;45420;-50
2022/04/21 00:49:08;;;;;;;;;5.00;4.00;;;;;15.59;31.24;100491.84;4961936;28;45306;-49
2022/04/21 00:51:34;;;;;;;;;4.25;4.25;;;;;15.54;31.35;100491.16;4961530;28;45270;-47
2022/04/21 00:54:00;;;;;;;;;7.00;6.00;;;;;15.53;31.15;100492.06;4961672;28;45433;-47
2022/04/21 00:56:26;;;;;;;;;5.25;5.25;;;;;15.50;31.22;100480.78;4961486;28;46080;-47
2022/04/21 00:58:52;;;;;;;;;6.50;5.00;;;;;15.46;31.26;100479.13;4961793;28;45266;-46
2022/04/21 01:04:03;;;;;;;;;4.75;4.75;;;;;15.40;31.12;100477.59;4966641;28;45323;-50
2022/04/21 01:06:29;;;;;;;;;5.75;5.75;;;;;15.37;31.68;100469.75;4975860;28;46331;-51
2022/04/21 01:08:54;;;;;;;;;5.00;5.00;;;;;15.31;31.49;100467.34;4960159;28;45277;-54
2022/04/21 01:11:21;;;;;;;;;7.50;6.75;;;;;15.29;31.54;100467.41;4961416;28;45720;-50
2022/04/21 01:13:47;;;;;;;;;5.25;4.50;;;;;15.27;31.20;100467.47;4961525;28;45423;-49
2022/04/21 01:16:12;;;;;;;;;5.50;5.50;;;;;15.24;31.59;100462.31;4963690;28;45354;-48
2022/04/21 01:18:38;;;;;;;;;6.25;5.00;;;;;15.21;31.76;100459.78;4961539;28;45275;-50
2022/04/21 01:21:03;;;;;;;;;4.25;4.25;;;;;15.18;31.60;100461.66;4961294;28;45227;-47
2022/04/21 01:23:28;;;;;;;;;5.00;5.00;;;;;15.16;31.84;100469.69;4961166;28;45261;-47
2022/04/21 01:25:54;;;;;;;;;7.25;6.25;;;;;15.14;31.27;100470.66;4960945;28;46891;-51
2022/04/21 01:28:21;;;;;;;;;6.75;5.75;;;;;15.08;31.85;100461.16;4961400;28;45419;-49
2022/04/21 01:30:46;;;;;;;;;5.00;5.00;;;;;15.08;31.79;100461.16;4959843;28;45591;-51
2022/04/21 01:33:11;;;;;;;;;6.75;6.75;;;;;15.06;31.50;100461.22;4960856;28;45806;-48
2022/04/21 01:35:37;;;;;;;;;5.00;5.00;;;;;15.03;31.99;100460.47;4961035;28;46174;-49
2022/04/21 01:43:31;;;;;;;;;5.50;5.00;;;;;14.92;31.41;100451.13;4961024;28;45386;-48
2022/04/21 01:45:56;;;;;;;;;5.00;4.00;;;;;14.87;31.91;100445.16;4959708;28;47455;-51
2022/04/21 01:48:22;;;;;;;;;4.25;4.00;;;;;14.88;31.44;100449.53;4960931;28;45333;-51
2022/04/21 01:50:47;;;;;;;;;3.50;3.50;;;;;14.86;31.82;100453.16;4961093;28;45406;-50
2022/04/21 01:53:13;;;;;;;;;4.00;4.00;;;;;14.83;31.65;100448.84;4959972;28;45425;-50
2022/04/21 01:55:38;;;;;;;;;6.00;6.00;;;;;14.80;31.90;100443.66;4960801;28;45427;-50
2022/04/21 01:58:03;;;;;;;;;7.00;5.00;;;;;14.78;31.68;100448.16;4960857;28;45358;-50
2022/04/21 02:00:29;;;;;;;;;5.25;4.25;;;;;14.76;31.85;100444.69;4961156;28;45502;-49
2022/04/21 02:02:55;;;;;;;;;4.00;4.00;;;;;14.74;32.09;100442.09;4959554;28;45523;-51
2022/04/21 02:05:20;;;;;;;;;8.25;6.25;;;;;14.68;31.75;100434.41;4974572;28;47247;-50
2022/04/21 02:07:46;;;;;;;;;6.75;6.50;;;;;14.69;32.24;100443.19;4965131;28;45234;-51
2022/04/21 02:10:17;;;;;;;;;5.25;4.75;;;;;14.67;31.62;100437.09;4960713;28;45169;-50
2022/04/21 02:12:43;;;;;;;;;5.25;5.25;;;;;14.63;32.35;100438.94;4960377;28;45385;-48
2022/04/21 02:15:09;;;;;;;;;6.50;6.00;;;;;14.58;32.08;100439.13;4960569;28;45477;-51
2022/04/21 02:17:35;;;;;;;;;6.00;4.75;;;;;14.58;31.86;100438.25;4961772;28;45317;-49
2022/04/21 02:20:02;;;;;;;;;5.50;4.00;;;;;14.55;32.06;100433.94;4960843;28;45167;-49
2022/04/21 02:22:27;;;;;;;;;7.75;6.00;;;;;14.54;31.87;100426.94;4960280;28;45492;-50
2022/04/21 02:24:52;;;;;;;;;6.50;6.50;;;;;14.48;31.99;100421.84;4960332;28;46109;-49
2022/04/21 02:27:18;;;;;;;;;6.00;6.00;;;;;14.47;32.51;100420.13;4960433;28;45226;-49
2022/04/21 02:29:43;;;;;;;;;7.50;4.50;;;;;14.46;32.13;100416.63;4960828;28;45715;-50
2022/04/21 02:32:09;;;;;;;;;7.00;5.75;;;;;14.44;32.48;100415.81;4960225;28;45397;-52
2022/04/21 02:34:34;;;;;;;;;4.50;3.00;;;;;14.37;32.40;100411.66;4960494;28;46016;-47
2022/04/21 02:37:00;;;;;;;;;7.00;6.00;;;;;14.39;32.22;100417.75;4960156;28;45282;-46
2022/04/21 02:39:25;;;;;;;;;7.75;6.25;;;;;14.34;32.36;100410.88;4960561;28;45326;-48
2022/04/21 02:41:51;;;;;;;;;7.25;7.25;;;;;14.32;32.41;100405.66;4960312;28;45307;-48
2022/04/21 02:44:17;;;;;;;;;8.00;6.00;;;;;14.29;32.17;100403.13;4960332;28;45334;-48
2022/04/21 02:46:43;;;;;;;;;5.75;5.75;;;;;14.25;32.08;100401.50;4959035;28;45372;-50
2022/04/21 02:49:08;;;;;;;;;7.00;5.75;;;;;14.25;32.60;100410.31;4960433;28;45505;-49
2022/04/21 02:51:35;;;;;;;;;5.00;5.00;;;;;14.23;32.11;100404.19;4960012;28;45432;-51
2022/04/21 02:59:29;;;;;;;;;5.50;5.50;;;;;14.14;32.09;100399.25;4960261;28;45330;-50
2022/04/21 03:01:55;;;;;;;;;8.00;5.00;;;;;14.13;32.05;100402.81;4960137;28;45530;-48
2022/04/21 03:04:21;;;;;;;;;8.50;6.50;;;;;14.09;32.39;100398.53;4968472;28;46320;-48
2022/04/21 03:06:47;;;;;;;;;6.00;6.00;;;;;14.07;32.23;100398.56;4975792;28;45370;-52
2022/04/21 03:09:12;;;;;;;;;4.00;4.00;;;;;14.06;32.33;100393.34;4963203;28;45223;-48
2022/04/21 03:11:38;;;;;;;;;7.25;7.00;;;;;14.04;32.56;100395.19;4962295;28;45344;-51
2022/04/21 03:14:03;;;;;;;;;5.00;5.00;;;;;14.00;32.36;100383.88;4961690;28;46960;-50
2022/04/21 03:16:28;;;;;;;;;4.75;4.75;;;;;13.98;32.68;100386.53;4965994;28;45431;-49
2022/04/21 03:18:54;;;;;;;;;8.75;8.75;;;;;13.93;32.39;100377.06;4963423;28;45232;-48
2022/04/21 03:24:21;;;;;;;;;4.00;3.75;;;;;13.91;32.39;100389.44;4962999;28;45745;-49
2022/04/21 03:26:52;;;;;;;;;6.75;6.00;;;;;13.85;32.72;100376.44;4963173;28;45267;-50
2022/04/21 03:29:19;;;;;;;;;7.25;6.00;;;;;13.84;32.45;100380.88;4961971;28;45458;-46
2022/04/21 03:31:44;;;;;;;;;17.50;15.50;;;;;13.83;32.64;100381.78;4961596;28;46121;-51
2022/04/21 03:34:13;;;;;;;;;5.50;5.50;;;;;13.79;32.83;100373.09;4962777;28;46044;-50
2022/04/21 03:36:44;;;;;;;;;6.00;6.00;;;;;13.78;32.51;100375.78;4962696;28;45347;-49
2022/04/21 03:39:09;;;;;;;;;4.25;2.75;;;;;13.74;32.51;100376.81;4963064;28;45395;-52
2022/04/21 03:41:35;;;;;;;;;7.25;7.25;;;;;13.72;32.47;100376.88;4962584;28;45263;-51
2022/04/21 03:44:00;;;;;;;;;6.75;6.75;;;;;13.68;32.54;100371.75;4961597;28;48330;-50
2022/04/21 03:46:25;;;;;;;;;32.75;31.50;;;;;13.67;32.62;100377.94;4962804;28;45551;-50
2022/04/21 03:48:51;;;;;;;;;6.00;6.00;;;;;13.63;32.58;100385.09;4963018;28;45354;-49
2022/04/21 03:51:16;;;;;;;;;5.25;5.25;;;;;13.62;32.72;100383.34;4962310;28;45489;-51
2022/04/21 03:53:41;;;;;;;;;8.25;8.25;;;;;13.59;32.95;100376.41;4962707;28;46090;-46
2022/04/21 03:56:07;;;;;;;;;6.25;5.75;;;;;13.57;32.96;100380.88;4962488;28;45165;-49
2022/04/21 03:58:33;;;;;;;;;8.50;6.75;;;;;13.56;32.85;100378.25;4963011;28;45216;-52
2022/04/21 04:00:58;;;;;;;;;5.50;5.25;;;;;13.53;33.09;100373.94;4961227;28;45436;-52
2022/04/21 04:03:24;;;;;;;;;3.75;3.75;;;;;13.52;32.75;100381.94;4962571;28;45361;-51
2022/04/21 04:05:49;;;;;;;;;5.50;5.25;;;;;13.48;33.07;100382.03;4981830;28;45335;-51
2022/04/21 04:10:59;;;;;;;;;5.25;5.25;;;;;13.44;32.58;100376.91;4962310;28;45319;-49
2022/04/21 04:13:24;;;;;;;;;7.50;5.25;;;;;13.38;32.96;100371.81;4962141;28;45942;-49
2022/04/21 04:15:51;;;;;;;;;6.50;6.00;;;;;13.39;32.88;100374.41;4964385;28;45505;-47
2022/04/21 04:18:21;;;;;;;;;7.00;7.00;;;;;13.39;33.15;100370.91;4962603;28;45284;-52
2022/04/21 04:20:47;;;;;;;;;6.00;5.75;;;;;13.38;33.11;100385.84;4962059;28;45335;-52
2022/04/21 04:23:20;;;;;;;;;6.50;6.00;;;;;13.34;33.33;100381.56;4961867;28;45479;-51
2022/04/21 04:25:46;;;;;;;;;6.00;6.00;;;;;13.30;33.01;100378.16;4962018;28;45306;-46
2022/04/21 04:28:12;;;;;;;;;7.50;5.50;;;;;13.30;32.90;100374.66;4961010;28;45340;-49
2022/04/21 04:30:40;;;;;;;;;6.50;6.50;;;;;13.28;32.89;100382.63;4960832;28;45241;-49
2022/04/21 04:33:07;;;;;;;;;5.25;5.25;;;;;13.27;33.04;100385.28;4961685;28;47080;-51
2022/04/21 04:35:32;;;;;;;;;6.25;6.25;;;;;13.24;33.08;100391.53;4961816;28;45540;-47
2022/04/21 04:37:58;;;;;;;;;9.00;7.50;;;;;13.22;33.12;100396.00;4961872;28;45309;-47
2022/04/21 04:40:25;;;;;;;;;8.00;6.50;;;;;13.20;33.14;100392.53;4961918;28;45571;-49
2022/04/21 04:42:53;;;;;;;;;8.00;7.50;;;;;13.17;32.97;100395.28;4960622;28;46320;-46
2022/04/21 04:48:03;;;;;;;;;5.25;5.25;;;;;13.12;33.26;100390.16;4962024;28;45223;-48
2022/04/21 04:50:28;;;;;;;;;7.75;7.75;;;;;13.12;33.20;100391.94;4961913;28;45461;-48
2022/04/21 04:52:58;;;;;;;;;7.50;6.00;;;;;13.10;33.36;100394.59;4961454;28;46115;-50
2022/04/21 04:55:24;;;;;;;;;7.75;5.50;;;;;13.04;32.96;100392.13;4961612;28;45333;-50
2022/04/21 04:57:50;;;;;;;;;6.50;6.50;;;;;13.05;33.43;100399.16;4961825;28;45166;-53
2022/04/21 05:00:15;;;;;;;;;7.75;7.75;;;;;13.06;33.30;100397.41;4961401;28;45558;-48
2022/04/21 05:02:41;;;;;;;;;7.50;6.50;;;;;13.01;33.23;100393.09;4961187;28;46295;-53
2022/04/21 05:05:07;;;;;;;;;6.25;6.25;;;;;13.01;33.23;100393.09;4975075;28;45281;-50
2022/04/21 05:07:33;;;;;;;;;6.75;6.75;;;;;12.99;33.33;100394.06;4967852;28;45370;-51
2022/04/21 05:09:58;;;;;;;;;8.50;8.50;;;;;12.99;33.36;100400.22;4961186;28;45163;-52
2022/04/21 05:12:24;;;;;;;;;4.75;4.75;;;;;12.97;33.33;100407.28;4961232;28;45250;-54
2022/04/21 05:14:49;;;;;;;;;9.00;9.00;;;;;12.93;33.24;100397.75;4961545;28;45375;-55
2022/04/21 05:17:15;;;;;;;;;7.75;7.75;;;;;12.95;33.48;100410.88;4963836;28;45362;-50
2022/04/21 05:19:40;;;;;;;;;5.25;5.25;;;;;12.94;33.57;100410.03;4961437;28;45662;-48
2022/04/21 05:22:07;;;;;;;;;6.25;4.00;;;;;12.94;33.55;100407.41;4961070;28;46212;-51
2022/04/21 05:24:34;;;;;;;;;7.25;7.25;;;;;12.93;33.78;100407.41;4961415;28;45327;-50
2022/04/21 05:27:00;;;;;;;;;9.50;7.00;;;;;12.91;33.56;100401.34;4960315;28;45298;-52
2022/04/21 05:32:11;;;;;;;;;6.75;6.50;;;;;12.91;33.54;100417.16;4960818;28;45446;-49
2022/04/21 05:34:37;;;;;;;;;7.50;7.50;;;;;12.90;33.60;100411.00;4960997;28;45303;-50
2022/04/21 05:37:03;;;;;;;;;9.00;9.00;;;;;12.90;33.65;100411.00;4960875;28;45295;-61
2022/04/21 05:39:29;;;;;;;;;10.00;8.75;;;;;12.90;33.68;100407.53;4959796;28;45595;-50
2022/04/21 05:41:57;;;;;;;;;10.50;9.50;;;;;12.89;33.81;100401.38;4960868;28;46124;-52
2022/04/21 05:44:23;;;;;;;;;6.75;6.00;;;;;12.91;33.83;100406.63;4959746;28;45284;-47
2022/04/21 05:46:49;;;;;;;;;9.50;8.25;;;;;12.83;33.78;100391.88;4960808;28;45351;-49
2022/04/21 05:49:16;;;;;;;;;7.00;6.00;;;;;12.91;33.91;100402.19;4965634;28;45450;-51
2022/04/21 05:51:42;;;;;;;;;3.75;2.75;;;;;12.93;33.87;100400.38;4961936;28;46310;-60
2022/04/21 05:54:08;;;;;;;;;7.00;6.25;;;;;12.95;33.86;100398.56;4960202;28;45299;-63
2022/04/21 05:56:34;;;;;;;;;5.50;5.50;;;;;12.96;33.88;100396.78;4960707;28;45291;-59
2022/04/21 05:59:00;;;;;;;;;7.25;6.50;;;;;12.98;33.93;100392.31;4960800;28;45431;-65
2022/04/21 06:01:26;;;;;;;;;7.25;7.25;;;;;13.00;33.99;100404.59;4960272;28;45331;-60
2022/04/21 06:03:52;;;;;;;;;5.50;5.50;;;;;13.00;34.29;100386.13;4964160;28;45343;-60
2022/04/21 06:06:18;;;;;;;;;10.75;10.75;;;;;13.04;34.21;100381.59;4976957;28;45480;-58
2022/04/21 06:08:43;;;;;;;;;8.25;7.75;;;;;13.06;34.11;100386.84;4960783;28;45607;-59
2022/04/21 06:11:09;;;;;;;;;9.75;7.75;;;;;13.03;34.16;100377.25;4960408;28;45469;-58
2022/04/21 06:13:36;;;;;;;;;7.75;7.00;;;;;13.07;34.11;100380.63;4960238;28;45186;-69
2022/04/21 06:16:01;;;;;;;;;8.75;8.75;;;;;13.07;34.29;100376.22;4965287;28;45458;-63
2022/04/21 06:18:27;;;;;;;;;5.50;5.50;;;;;13.11;33.97;100380.50;4969059;28;45503;-60
2022/04/21 06:20:54;;;;;;;;;8.75;8.00;;;;;13.11;34.24;100382.28;4960189;28;46212;-60
2022/04/21 06:23:20;;;;;;;;;9.75;9.75;;;;;13.11;34.15;100383.13;4960502;28;45300;-60
2022/04/21 06:25:46;;;;;;;;;8.00;6.75;;;;;13.13;34.29;100383.09;4958971;28;45462;-60
2022/04/21 06:28:12;;;;;;;;;9.25;7.25;;;;;13.13;34.20;100381.31;4960391;28;45450;-59
2022/04/21 06:30:38;;;;;;;;;6.00;6.00;;;;;13.12;34.19;100376.09;4960458;28;46999;-60
2022/04/21 06:33:04;;;;;;;;;7.75;7.50;;;;;13.15;34.28;100384.75;4960137;28;45482;-59
2022/04/21 06:35:29;;;;;;;;;11.25;9.75;;;;;13.17;34.41;100382.09;4977248;28;45401;-59
2022/04/21 06:37:55;;;;;;;;;10.25;9.00;;;;;13.18;34.09;100378.53;4980700;28;45484;-60
2022/04/21 06:40:21;;;;;;;;;9.75;7.50;;;;;13.20;34.27;100383.78;4981952;28;46318;-61
2022/04/21 06:42:47;;;;;;;;;8.75;8.25;;;;;13.18;34.17;100370.63;4982907;28;45306;-61
2022/04/21 06:48:07;;;;;;;;;7.50;7.25;;;;;13.24;34.07;100370.44;4983489;28;45428;-61
2022/04/21 06:50:38;;;;;;;;;10.50;8.50;;;;;13.24;34.05;100370.44;4981962;28;46075;-61
2022/04/21 06:53:06;;;;;;;;;8.50;8.50;;;;;13.24;34.12;100370.44;4982909;28;45402;-61
2022/04/21 06:55:31;;;;;;;;;6.00;6.00;;;;;13.27;34.31;100374.75;4983244;28;45286;-61
2022/04/21 06:57:57;;;;;;;;;5.75;5.75;;;;;13.26;34.32;100370.41;4981753;28;45400;-61
2022/04/21 07:00:26;;;;;;;;;12.25;10.50;;;;;13.31;34.38;100374.59;4981865;28;48343;-61
2022/04/21 07:02:55;;;;;;;;;8.00;7.50;;;;;13.33;34.29;100364.88;4982908;28;45354;-60
2022/04/21 07:05:24;;;;;;;;;7.25;7.25;;;;;13.35;34.34;100359.53;4982967;28;45342;-60
2022/04/21 07:07:50;;;;;;;;;10.25;9.50;;;;;13.36;34.31;100361.28;4982656;28;45353;-61
2022/04/21 07:10:18;;;;;;;;;11.75;9.50;;;;;13.41;34.42;100369.06;4982728;28;46142;-60
2022/04/21 07:12:43;;;;;;;;;7.75;6.25;;;;;13.43;34.15;100369.88;4982678;28;45314;-60
2022/04/21 07:15:10;;;;;;;;;7.75;7.50;;;;;13.45;34.21;100365.44;4982837;28;45378;-61
2022/04/21 07:17:36;;;;;;;;;9.00;9.00;;;;;13.44;34.32;100364.53;4982781;28;45181;-61
2022/04/21 07:20:04;;;;;;;;;8.50;7.75;;;;;13.49;34.40;100364.41;4981992;28;45464;-61
2022/04/21 07:22:29;;;;;;;;;11.50;9.25;;;;;13.50;34.17;100368.78;4982470;28;45328;-61
2022/04/21 07:24:56;;;;;;;;;10.50;9.50;;;;;13.46;34.30;100362.72;4982822;28;45349;-61
2022/04/21 07:27:22;;;;;;;;;7.50;7.50;;;;;13.56;34.58;100376.50;4981585;28;45383;-61
2022/04/21 07:29:48;;;;;;;;;9.00;9.00;;;;;13.58;34.57;100377.31;4981358;28;47261;-60
2022/04/21 07:32:13;;;;;;;;;10.25;9.25;;;;;13.60;34.52;100379.91;4982377;28;45333;-61
2022/04/21 07:34:39;;;;;;;;;7.50;7.50;;;;;13.63;34.18;100374.53;4982852;28;45477;-61
2022/04/21 07:37:05;;;;;;;;;8.25;8.25;;;;;13.62;34.27;100373.66;4982352;28;45314;-60
2022/04/21 07:39:31;;;;;;;;;9.00;6.50;;;;;13.65;34.45;100367.41;4982543;28;45311;-61
2022/04/21 07:41:58;;;;;;;;;9.25;8.75;;;;;13.71;34.36;100363.69;4981262;28;45292;-61
2022/04/21 07:44:25;;;;;;;;;11.00;9.75;;;;;13.73;34.53;100362.72;4982664;28;45176;-60
2022/04/21 07:46:50;;;;;;;;;11.00;9.50;;;;;13.77;34.46;100361.75;4980990;28;45752;-61
2022/04/21 07:54:43;;;;;;;;;8.25;7.75;;;;;13.88;34.30;100365.78;4982135;28;45456;-60
2022/04/21 07:57:10;;;;;;;;;10.50;9.25;;;;;13.91;34.38;100363.03;4982406;28;45424;-61
2022/04/21 07:59:36;;;;;;;;;11.25;11.25;;;;;13.95;34.27;100368.16;4982191;28;45370;-60
2022/04/21 08:02:03;;;;;;;;;9.50;9.50;;;;;13.99;34.38;100371.56;4982195;28;45394;-60
2022/04/21 08:04:29;;;;;;;;;8.50;8.50;;;;;14.04;34.24;100371.41;4982191;28;45345;-59
2022/04/21 08:06:54;;;;;;;;;8.75;8.25;;;;;14.06;34.30;100367.81;4981887;28;45319;-60
2022/04/21 08:09:20;;;;;;;;;9.25;8.00;;;;;14.12;34.60;100374.66;4981994;28;46821;-60
2022/04/21 08:11:46;;;;;;;;;12.75;12.25;;;;;14.16;34.42;100378.91;4982105;28;45215;-60
2022/04/21 08:14:14;;;;;;;;;11.50;10.00;;;;;14.17;34.57;100374.50;4982134;28;45249;-60
2022/04/21 08:16:39;;;;;;;;;12.25;11.25;;;;;14.24;34.25;100370.72;4980776;28;45460;-60
2022/04/21 08:19:05;;;;;;;;;10.00;8.50;;;;;14.30;34.27;100374.00;4981837;28;46071;-59
2022/04/21 08:21:30;;;;;;;;;11.00;9.50;;;;;14.32;34.54;100363.38;4981729;28;45302;-59
2022/04/21 08:32:33;;;;;;;;;8.25;8.25;;;;;14.40;34.39;100365.72;4982049;28;45346;-59
2022/04/21 08:34:52;;;;;;;;;11.75;10.75;;;;;14.66;34.65;100364.81;4981763;28;45187;-60
2022/04/21 08:37:18;;;;;;;;;12.75;10.25;;;;;14.70;34.81;100362.91;4980035;28;45286;-61
2022/04/21 08:39:45;;;;;;;;;10.75;10.25;;;;;14.78;34.37;100368.81;4981813;28;45227;-59
2022/04/21 08:42:13;;;;;;;;;11.00;9.75;;;;;14.83;34.54;100368.59;4981458;28;45338;-60
2022/04/21 08:44:43;;;;;;;;;11.75;10.00;;;;;14.88;34.37;100367.53;4981727;28;45334;-60
2022/04/21 08:47:10;;;;;;;;;11.25;10.00;;;;;14.94;34.31;100362.00;4981395;28;45171;-59
2022/04/21 08:49:39;;;;;;;;;7.00;7.00;;;;;15.02;34.38;100364.34;4981456;28;46271;-59
2022/04/21 08:52:05;;;;;;;;;12.75;11.25;;;;;15.06;34.57;100355.38;4981042;28;45314;-59
2022/04/21 08:54:31;;;;;;;;;9.00;8.75;;;;;15.14;34.71;100351.56;4981335;28;45338;-60
2022/04/21 08:56:57;;;;;;;;;9.00;7.25;;;;;15.21;34.32;100356.56;4981231;28;45409;-60
2022/04/21 08:59:23;;;;;;;;;12.00;12.00;;;;;15.22;34.51;100355.63;4981296;28;46394;-59
2022/04/21 09:01:49;;;;;;;;;11.75;11.75;;;;;15.36;34.86;100359.53;4980921;28;45247;-59
2022/04/21 09:04:14;;;;;;;;;12.00;11.00;;;;;15.45;34.20;100361.78;4981367;28;45401;-59
2022/04/21 09:06:40;;;;;;;;;11.50;10.00;;;;;15.54;34.76;100363.19;4980795;28;45215;-58
2022/04/21 09:09:13;;;;;;;;;6.25;6.25;;;;;15.63;34.63;100362.81;4979732;28;47540;-58
2022/04/21 09:11:39;;;;;;;;;9.00;9.00;;;;;15.71;34.47;100360.72;4981113;28;45451;-58
2022/04/21 09:14:05;;;;;;;;;10.25;8.75;;;;;15.76;34.73;100353.44;4981053;28;45313;-59
2022/04/21 09:16:34;;;;;;;;;9.25;8.50;;;;;15.89;34.41;100355.59;4980846;28;45368;-59
2022/04/21 09:19:02;;;;;;;;;12.75;12.75;;;;;16.00;34.51;100356.00;4981068;28;46247;-59
2022/04/21 09:21:38;;;;;;;;;10.00;10.00;;;;;16.09;34.78;100344.16;4980708;28;45261;-59
2022/04/21 09:24:25;;;;;;;;;12.50;9.50;;;;;16.20;34.37;100352.50;4980808;28;45368;-59
2022/04/21 09:26:52;;;;;;;;;10.00;10.00;;;;;16.30;34.27;100338.81;4980849;28;45509;-60
2022/04/21 09:29:33;;;;;;;;;12.25;8.25;;;;;16.40;34.36;100340.13;4980794;28;45461;-59
2022/04/21 09:32:02;;;;;;;;;13.75;11.00;;;;;16.50;34.13;100335.28;4979397;28;45939;-59
2022/04/21 09:34:28;;;;;;;;;9.75;9.00;;;;;16.61;34.56;100334.81;4980898;28;45304;-59
2022/04/21 09:36:57;;;;;;;;;11.75;10.00;;;;;16.72;34.24;100333.34;4980472;28;45564;-59
2022/04/21 09:39:23;;;;;;;;;10.50;10.50;;;;;16.82;34.34;100336.44;4980623;28;46022;-59
2022/04/21 09:41:55;;;;;;;;;12.00;11.00;;;;;16.98;34.48;100333.09;4980596;28;45441;-59
2022/04/21 09:47:20;;;;;;;;;12.00;11.25;;;;;17.27;33.99;100326.41;4980786;28;45232;-59
2022/04/21 09:49:46;;;;;;;;;11.00;9.50;;;;;17.39;34.19;100324.94;4980437;28;46183;-59
2022/04/21 09:52:12;;;;;;;;;11.75;10.50;;;;;17.54;33.96;100324.16;4978908;28;45454;-59
2022/04/21 09:54:40;;;;;;;;;14.00;11.25;;;;;17.65;33.75;100322.78;4980501;28;45466;-59
2022/04/21 09:57:07;;;;;;;;;9.00;9.00;;;;;17.79;33.73;100317.63;4980313;28;46049;-59
2022/04/21 09:59:36;;;;;;;;;11.25;9.75;;;;;17.92;33.67;100317.84;4980438;28;45358;-59
2022/04/21 10:02:02;;;;;;;;;13.00;9.50;;;;;18.02;33.67;100308.50;4980175;28;45330;-60
2022/04/21 10:04:29;;;;;;;;;10.75;10.75;;;;;18.12;33.57;100310.69;4980467;28;45359;-60
2022/04/21 10:06:56;;;;;;;;;9.75;9.50;;;;;18.25;33.71;100310.88;4980075;28;45564;-60
2022/04/21 10:09:23;;;;;;;;;11.50;9.25;;;;;18.38;33.43;100309.28;4978828;28;46272;-60
2022/04/21 10:11:51;;;;;;;;;10.00;10.00;;;;;18.50;33.20;100307.75;4980153;28;45301;-60
2022/04/21 10:14:17;;;;;;;;;12.50;11.25;;;;;18.62;33.46;100308.91;4984661;28;45277;-61
2022/04/21 10:16:43;;;;;;;;;11.75;11.75;;;;;18.74;32.98;100305.56;4986401;28;45357;-59
2022/04/21 10:19:10;;;;;;;;;12.75;12.75;;;;;18.86;33.28;100292.53;4986365;28;45923;-61
2022/04/21 10:21:54;;;;;;;;;11.00;11.00;;;;;18.99;32.73;100289.13;4977663;28;45248;-58
2022/04/21 10:24:27;;;;;;;;;11.00;10.50;;;;;19.12;33.18;100283.09;4976747;28;45246;-58
2022/04/21 10:26:54;;;;;;;;;8.50;8.50;;;;;19.27;33.13;100281.34;4984013;28;45651;-57
2022/04/21 10:29:23;;;;;;;;;10.25;9.25;;;;;19.44;32.65;100277.69;4972135;28;46231;-56
2022/04/21 10:31:57;;;;;;;;;9.75;9.00;;;;;19.64;32.94;100277.38;4979535;28;45384;-56
2022/04/21 10:34:40;;;;;;;;;13.75;11.25;;;;;19.87;32.86;100271.66;4979789;28;45283;-57
2022/04/21 10:37:21;;;;;;;;;10.00;9.25;;;;;20.11;32.89;100272.81;4981285;28;45523;-56
2022/04/21 10:40:06;;;;;;;;;12.00;11.00;;;;;20.34;32.33;100262.53;4972125;28;46409;-57
2022/04/21 10:42:54;;;;;;;;;9.25;9.00;;;;;20.60;32.68;100260.88;4971781;28;45335;-54
2022/04/21 10:45:24;;;;;;;;;9.25;8.00;;;;;20.85;32.37;100261.16;4967674;28;45289;-55
2022/04/21 10:48:01;;;;;;;;;8.75;7.75;;;;;21.13;31.99;100270.00;4967369;28;45531;-53
2022/04/21 10:50:31;;;;;;;;;9.50;8.00;;;;;21.38;31.68;100263.88;4967298;28;45355;-55
2022/04/21 10:58:33;;;;;;;;;12.75;12.25;;;;;22.49;31.61;100250.06;4967496;28;45334;-55
2022/04/21 11:01:13;;;;;;;;;9.50;9.50;;;;;22.98;31.61;100256.31;4966839;28;46236;-55
2022/04/21 11:03:40;;;;;;;;;10.75;8.75;;;;;23.47;31.86;100249.13;4968765;28;45400;-56
2022/04/21 11:06:07;;;;;;;;;6.75;6.75;;;;;23.97;31.36;100252.44;4985403;28;45359;-57
2022/04/21 11:08:33;;;;;;;;;10.50;9.50;;;;;24.49;31.33;100242.06;4969934;28;45481;-56
2022/04/21 11:10:58;;;;;;;;;10.50;9.25;;;;;25.00;30.99;100247.84;4973169;28;46254;-57
2022/04/21 11:13:48;;;;;;;;;12.75;9.00;;;;;25.56;30.71;100235.16;4972177;28;45519;-58
2022/04/21 11:16:45;;;;;;;;;13.00;10.50;;;;;26.18;30.45;100233.41;4984412;28;45275;-57
2022/04/21 11:19:40;;;;;;;;;8.75;7.25;;;;;26.82;30.10;100233.19;4985256;28;45535;-56
2022/04/21 11:22:08;;;;;;;;;9.50;9.25;;;;;27.33;30.77;100228.53;4977014;28;45457;-56
2022/04/21 11:24:55;;;;;;;;;9.50;9.25;;;;;27.93;30.11;100225.59;4972701;28;45644;-55
2022/04/21 11:27:25;;;;;;;;;10.25;9.75;;;;;28.51;29.75;100223.66;4977004;28;45519;-56
2022/04/21 11:29:51;;;;;;;;;8.00;6.75;;;;;29.08;29.74;100215.34;4980219;28;45391;-56
2022/04/21 11:32:17;;;;;;;;;9.25;9.25;;;;;29.64;29.78;100212.41;4978688;28;45368;-55
2022/04/21 11:35:06;;;;;;;;;7.50;7.50;;;;;30.29;29.23;100222.75;4977282;28;45423;-56
2022/04/21 11:37:52;;;;;;;;;9.75;8.25;;;;;30.93;28.95;100211.44;4970356;28;45298;-56
2022/04/21 11:40:31;;;;;;;;;8.00;8.00;;;;;31.47;28.70;100223.66;4975371;28;45488;-53
2022/04/21 11:42:58;;;;;;;;;9.75;9.75;;;;;31.93;28.39;100217.69;4981331;28;46329;-56
2022/04/21 11:45:26;;;;;;;;;8.50;8.50;;;;;32.39;27.99;100209.72;4980606;28;45311;-56
2022/04/21 11:47:52;;;;;;;;;8.25;8.00;;;;;32.84;27.49;100209.16;4984391;28;45224;-54
2022/04/21 11:50:19;;;;;;;;;7.75;7.75;;;;;33.27;27.35;100209.50;4980749;28;45543;-50
2022/04/21 11:52:46;;;;;;;;;8.75;8.75;;;;;33.66;27.34;100208.47;4980312;28;47459;-56
2022/04/21 11:55:15;;;;;;;;;6.75;6.75;;;;;34.02;26.96;100210.47;4981965;28;45371;-56
2022/04/21 11:57:41;;;;;;;;;9.25;9.25;;;;;34.40;27.08;100197.78;4982211;28;45298;-54
2022/04/21 12:00:08;;;;;;;;;8.50;7.25;;;;;34.76;26.61;100207.84;4980573;28;45824;-54
2022/04/21 12:08:06;;;;;;;;;7.00;6.00;;;;;35.88;25.36;100192.63;4948424;28;45491;-55
2022/04/21 12:10:31;;;;;;;;;8.00;7.00;;;;;36.21;25.84;100191.13;4981615;28;45472;-56
2022/04/21 12:12:57;;;;;;;;;8.50;6.75;;;;;36.52;25.40;100193.34;4981716;28;46335;-55
2022/04/21 12:15:27;;;;;;;;;6.75;6.75;;;;;36.78;24.83;100205.44;4980581;28;45618;-54
2022/04/21 12:17:58;;;;;;;;;8.25;8.25;;;;;37.05;25.40;100189.06;4992938;28;45382;-55
2022/04/21 12:20:23;;;;;;;;;6.00;4.75;;;;;37.32;24.65;100189.06;4981982;28;45425;-54